sensor_id;sensor_type;location;lat;lon;timestamp;temperature;humidity
13960;DHT22;7052;51.050;3.716;2023-05-10T00:00:15;12.80;99.90
13960;DHT22;7052;51.050;3.716;2023-05-10T00:02:43;12.80;99.90
13960;DHT22;7052;51.050;3.716;2023-05-10T00:05:12;12.80;99.90
13960;DHT22;7052;51.050;3.716;2023-05-10T00:07:40;12.80;99.90
13960;DHT22;7052;51.050;3.716;2023-05-10T00:10:10;12.80;99.90
13960;DHT22;7052;51.050;3.716;2023-05-10T00:12:37;12.80;99.90
13960;DHT22;7052;51.050;3.716;2023-05-10T00:15:10;12.80;99.90
13960;DHT22;7052;51.050;3.716;2023-05-10T00:17:37;12.80;99.90
13960;DHT22;7052;51.050;3.716;2023-05-10T00:20:06;12.90;99.90
13960;DHT22;7052;51.050;3.716;2023-05-10T00:22:33;12.90;99.90
13960;DHT22;7052;51.050;3.716;2023-05-10T00:25:00;13.00;99.90
13960;DHT22;7052;51.050;3.716;2023-05-10T00:27:29;13.00;99.90
13960;DHT22;7052;51.050;3.716;2023-05-10T00:29:58;13.00;99.90
13960;DHT22;7052;51.050;3.716;2023-05-10T00:32:30;13.00;99.90
13960;DHT22;7052;51.050;3.716;2023-05-10T00:34:58;13.00;99.90
13960;DHT22;7052;51.050;3.716;2023-05-10T00:37:26;13.00;99.90
13960;DHT22;7052;51.050;3.716;2023-05-10T00:39:56;13.10;99.90
13960;DHT22;7052;51.050;3.716;2023-05-10T00:42:26;13.00;99.90
13960;DHT22;7052;51.050;3.716;2023-05-10T00:44:53;13.00;99.90
13960;DHT22;7052;51.050;3.716;2023-05-10T00:47:31;13.10;99.90
13960;DHT22;7052;51.050;3.716;2023-05-10T00:50:00;13.00;99.90
13960;DHT22;7052;51.050;3.716;2023-05-10T00:52:30;13.00;99.90
13960;DHT22;7052;51.050;3.716;2023-05-10T00:55:00;13.00;99.90
13960;DHT22;7052;51.050;3.716;2023-05-10T00:57:29;13.00;99.90
13960;DHT22;7052;51.050;3.716;2023-05-10T00:59:59;13.00;99.90
13960;DHT22;7052;51.050;3.716;2023-05-10T01:02:31;13.00;99.90
13960;DHT22;7052;51.050;3.716;2023-05-10T01:04:58;13.00;99.90
13960;DHT22;7052;51.050;3.716;2023-05-10T01:07:26;13.00;99.90
13960;DHT22;7052;51.050;3.716;2023-05-10T01:09:54;13.00;99.90
13960;DHT22;7052;51.050;3.716;2023-05-10T01:12:23;13.00;99.90
13960;DHT22;7052;51.050;3.716;2023-05-10T01:14:51;13.00;99.90
13960;DHT22;7052;51.050;3.716;2023-05-10T01:17:21;13.00;99.90
13960;DHT22;7052;51.050;3.716;2023-05-10T01:19:51;13.00;99.90
13960;DHT22;7052;51.050;3.716;2023-05-10T01:22:38;13.00;99.90
13960;DHT22;7052;51.050;3.716;2023-05-10T01:28:33;13.00;99.90
13960;DHT22;7052;51.050;3.716;2023-05-10T01:31:13;13.00;99.90
13960;DHT22;7052;51.050;3.716;2023-05-10T01:33:55;13.00;99.90
13960;DHT22;7052;51.050;3.716;2023-05-10T01:36:31;12.90;99.90
13960;DHT22;7052;51.050;3.716;2023-05-10T01:39:08;13.00;99.90
13960;DHT22;7052;51.050;3.716;2023-05-10T01:41:44;13.00;99.90
13960;DHT22;7052;51.050;3.716;2023-05-10T01:44:17;13.00;99.90
13960;DHT22;7052;51.050;3.716;2023-05-10T01:46:51;13.00;99.90
13960;DHT22;7052;51.050;3.716;2023-05-10T01:49:25;13.00;99.90
13960;DHT22;7052;51.050;3.716;2023-05-10T01:52:00;13.00;99.90
13960;DHT22;7052;51.050;3.716;2023-05-10T01:54:33;12.80;99.90
13960;DHT22;7052;51.050;3.716;2023-05-10T01:57:05;12.90;99.90
13960;DHT22;7052;51.050;3.716;2023-05-10T01:59:35;12.90;99.90
13960;DHT22;7052;51.050;3.716;2023-05-10T02:02:07;12.90;99.90
13960;DHT22;7052;51.050;3.716;2023-05-10T02:04:39;12.90;99.90
13960;DHT22;7052;51.050;3.716;2023-05-10T02:07:08;12.80;99.90
13960;DHT22;7052;51.050;3.716;2023-05-10T02:09:37;12.80;99.90
13960;DHT22;7052;51.050;3.716;2023-05-10T02:12:06;12.80;99.90
13960;DHT22;7052;51.050;3.716;2023-05-10T02:14:36;12.80;99.90
13960;DHT22;7052;51.050;3.716;2023-05-10T02:17:05;12.90;99.90
13960;DHT22;7052;51.050;3.716;2023-05-10T02:19:40;12.80;99.90
13960;DHT22;7052;51.050;3.716;2023-05-10T02:22:08;12.80;99.90
13960;DHT22;7052;51.050;3.716;2023-05-10T02:24:36;12.80;99.90
13960;DHT22;7052;51.050;3.716;2023-05-10T02:27:04;12.80;99.90
13960;DHT22;7052;51.050;3.716;2023-05-10T02:29:36;12.80;99.90
13960;DHT22;7052;51.050;3.716;2023-05-10T02:32:04;12.80;99.90
13960;DHT22;7052;51.050;3.716;2023-05-10T02:34:32;12.80;99.90
13960;DHT22;7052;51.050;3.716;2023-05-10T02:37:02;12.80;99.90
13960;DHT22;7052;51.050;3.716;2023-05-10T02:39:32;12.80;99.90
13960;DHT22;7052;51.050;3.716;2023-05-10T02:42:00;12.80;99.90
13960;DHT22;7052;51.050;3.716;2023-05-10T02:44:28;12.90;99.90
13960;DHT22;7052;51.050;3.716;2023-05-10T02:46:57;12.90;99.90
13960;DHT22;7052;51.050;3.716;2023-05-10T02:49:24;12.80;99.90
13960;DHT22;7052;51.050;3.716;2023-05-10T02:51:56;12.90;99.90
13960;DHT22;7052;51.050;3.716;2023-05-10T02:54:31;12.90;99.90
13960;DHT22;7052;51.050;3.716;2023-05-10T02:57:04;12.90;99.90
13960;DHT22;7052;51.050;3.716;2023-05-10T02:59:34;12.90;99.90
13960;DHT22;7052;51.050;3.716;2023-05-10T03:02:01;12.90;99.90
13960;DHT22;7052;51.050;3.716;2023-05-10T03:04:31;12.90;99.90
13960;DHT22;7052;51.050;3.716;2023-05-10T03:06:59;12.90;99.90
13960;DHT22;7052;51.050;3.716;2023-05-10T03:09:33;12.90;99.90
13960;DHT22;7052;51.050;3.716;2023-05-10T03:12:04;12.90;99.90
13960;DHT22;7052;51.050;3.716;2023-05-10T03:14:45;12.90;99.90
13960;DHT22;7052;51.050;3.716;2023-05-10T03:17:23;12.90;99.90
13960;DHT22;7052;51.050;3.716;2023-05-10T03:19:55;12.90;99.90
13960;DHT22;7052;51.050;3.716;2023-05-10T03:22:26;12.90;99.90
13960;DHT22;7052;51.050;3.716;2023-05-10T03:25:06;12.90;99.90
13960;DHT22;7052;51.050;3.716;2023-05-10T03:27:40;12.90;99.90
13960;DHT22;7052;51.050;3.716;2023-05-10T03:30:13;12.90;99.90
13960;DHT22;7052;51.050;3.716;2023-05-10T03:32:41;12.90;99.90
13960;DHT22;7052;51.050;3.716;2023-05-10T03:35:09;12.80;99.90
13960;DHT22;7052;51.050;3.716;2023-05-10T03:37:37;12.90;99.90
13960;DHT22;7052;51.050;3.716;2023-05-10T03:40:07;12.90;99.90
13960;DHT22;7052;51.050;3.716;2023-05-10T03:42:38;12.80;99.90
13960;DHT22;7052;51.050;3.716;2023-05-10T03:45:07;12.80;99.90
13960;DHT22;7052;51.050;3.716;2023-05-10T03:47:35;12.80;99.90
13960;DHT22;7052;51.050;3.716;2023-05-10T03:50:03;12.90;99.90
13960;DHT22;7052;51.050;3.716;2023-05-10T03:52:30;12.80;99.90
13960;DHT22;7052;51.050;3.716;2023-05-10T03:54:58;12.80;99.90
13960;DHT22;7052;51.050;3.716;2023-05-10T03:57:31;12.90;99.90
13960;DHT22;7052;51.050;3.716;2023-05-10T03:59:58;12.90;99.90
13960;DHT22;7052;51.050;3.716;2023-05-10T04:02:25;12.90;99.90
13960;DHT22;7052;51.050;3.716;2023-05-10T04:04:53;12.90;99.90
13960;DHT22;7052;51.050;3.716;2023-05-10T04:07:22;12.80;99.90
13960;DHT22;7052;51.050;3.716;2023-05-10T04:09:52;12.80;99.90
13960;DHT22;7052;51.050;3.716;2023-05-10T04:12:19;12.80;99.90
13960;DHT22;7052;51.050;3.716;2023-05-10T04:14:50;12.80;99.90
13960;DHT22;7052;51.050;3.716;2023-05-10T04:17:17;12.80;99.90
13960;DHT22;7052;51.050;3.716;2023-05-10T04:19:50;12.80;99.90
13960;DHT22;7052;51.050;3.716;2023-05-10T04:22:18;12.80;99.90
13960;DHT22;7052;51.050;3.716;2023-05-10T04:24:45;12.90;99.90
13960;DHT22;7052;51.050;3.716;2023-05-10T04:27:14;12.90;99.90
13960;DHT22;7052;51.050;3.716;2023-05-10T04:29:43;12.90;99.90
13960;DHT22;7052;51.050;3.716;2023-05-10T04:32:13;12.90;99.90
13960;DHT22;7052;51.050;3.716;2023-05-10T04:34:42;12.90;99.90
13960;DHT22;7052;51.050;3.716;2023-05-10T04:37:10;12.90;99.90
13960;DHT22;7052;51.050;3.716;2023-05-10T04:39:37;12.90;99.90
13960;DHT22;7052;51.050;3.716;2023-05-10T04:42:06;13.00;99.90
13960;DHT22;7052;51.050;3.716;2023-05-10T04:44:34;13.00;99.90
13960;DHT22;7052;51.050;3.716;2023-05-10T04:47:03;13.00;99.90
13960;DHT22;7052;51.050;3.716;2023-05-10T04:49:31;13.00;99.90
13960;DHT22;7052;51.050;3.716;2023-05-10T04:52:01;13.00;99.90
13960;DHT22;7052;51.050;3.716;2023-05-10T04:54:28;13.00;99.90
13960;DHT22;7052;51.050;3.716;2023-05-10T04:56:55;13.00;99.90
13960;DHT22;7052;51.050;3.716;2023-05-10T04:59:25;13.00;99.90
13960;DHT22;7052;51.050;3.716;2023-05-10T05:01:52;13.00;99.90
13960;DHT22;7052;51.050;3.716;2023-05-10T05:04:19;13.00;99.90
13960;DHT22;7052;51.050;3.716;2023-05-10T05:06:50;13.10;99.90
13960;DHT22;7052;51.050;3.716;2023-05-10T05:09:18;13.00;99.90
13960;DHT22;7052;51.050;3.716;2023-05-10T05:11:45;13.00;99.90
13960;DHT22;7052;51.050;3.716;2023-05-10T05:14:12;13.10;99.90
13960;DHT22;7052;51.050;3.716;2023-05-10T05:16:39;13.10;99.90
13960;DHT22;7052;51.050;3.716;2023-05-10T05:19:07;13.10;99.90
13960;DHT22;7052;51.050;3.716;2023-05-10T05:21:37;13.10;99.90
13960;DHT22;7052;51.050;3.716;2023-05-10T05:24:06;13.10;99.90
13960;DHT22;7052;51.050;3.716;2023-05-10T05:26:39;13.10;99.90
13960;DHT22;7052;51.050;3.716;2023-05-10T05:29:07;13.10;99.90
13960;DHT22;7052;51.050;3.716;2023-05-10T05:31:34;13.10;99.90
13960;DHT22;7052;51.050;3.716;2023-05-10T05:34:01;13.10;99.90
13960;DHT22;7052;51.050;3.716;2023-05-10T05:36:28;13.20;99.90
13960;DHT22;7052;51.050;3.716;2023-05-10T05:38:56;13.20;99.90
13960;DHT22;7052;51.050;3.716;2023-05-10T05:41:29;13.30;99.90
13960;DHT22;7052;51.050;3.716;2023-05-10T05:43:56;13.30;99.90
13960;DHT22;7052;51.050;3.716;2023-05-10T05:46:23;13.30;99.90
13960;DHT22;7052;51.050;3.716;2023-05-10T05:48:50;13.30;99.90
13960;DHT22;7052;51.050;3.716;2023-05-10T05:51:17;13.30;99.90
13960;DHT22;7052;51.050;3.716;2023-05-10T05:53:44;13.40;99.90
13960;DHT22;7052;51.050;3.716;2023-05-10T05:56:12;13.40;99.90
13960;DHT22;7052;51.050;3.716;2023-05-10T05:58:43;13.40;99.90
13960;DHT22;7052;51.050;3.716;2023-05-10T06:01:11;13.40;99.90
13960;DHT22;7052;51.050;3.716;2023-05-10T06:03:41;13.50;99.90
13960;DHT22;7052;51.050;3.716;2023-05-10T06:06:09;13.50;99.90
13960;DHT22;7052;51.050;3.716;2023-05-10T06:08:37;13.60;99.90
13960;DHT22;7052;51.050;3.716;2023-05-10T06:11:06;13.60;99.90
13960;DHT22;7052;51.050;3.716;2023-05-10T06:13:34;13.70;99.90
13960;DHT22;7052;51.050;3.716;2023-05-10T06:16:03;13.80;99.90
13960;DHT22;7052;51.050;3.716;2023-05-10T06:18:31;13.80;99.90
13960;DHT22;7052;51.050;3.716;2023-05-10T06:21:00;13.90;99.90
13960;DHT22;7052;51.050;3.716;2023-05-10T06:23:27;13.90;99.90
13960;DHT22;7052;51.050;3.716;2023-05-10T06:25:56;13.90;99.90
13960;DHT22;7052;51.050;3.716;2023-05-10T06:28:26;13.90;99.90
13960;DHT22;7052;51.050;3.716;2023-05-10T06:30:56;13.90;99.90
13960;DHT22;7052;51.050;3.716;2023-05-10T06:33:25;13.90;99.90
13960;DHT22;7052;51.050;3.716;2023-05-10T06:35:52;13.90;99.90
13960;DHT22;7052;51.050;3.716;2023-05-10T06:38:19;13.80;99.90
13960;DHT22;7052;51.050;3.716;2023-05-10T06:40:46;13.80;99.90
13960;DHT22;7052;51.050;3.716;2023-05-10T06:43:15;13.80;99.90
13960;DHT22;7052;51.050;3.716;2023-05-10T06:45:42;13.80;99.90
13960;DHT22;7052;51.050;3.716;2023-05-10T06:48:09;13.70;99.90
13960;DHT22;7052;51.050;3.716;2023-05-10T06:50:39;13.70;99.90
13960;DHT22;7052;51.050;3.716;2023-05-10T06:53:10;13.70;99.90
13960;DHT22;7052;51.050;3.716;2023-05-10T06:55:38;13.70;99.90
13960;DHT22;7052;51.050;3.716;2023-05-10T06:58:11;13.70;99.90
13960;DHT22;7052;51.050;3.716;2023-05-10T07:00:39;13.70;99.90
13960;DHT22;7052;51.050;3.716;2023-05-10T07:03:09;13.90;99.90
13960;DHT22;7052;51.050;3.716;2023-05-10T07:05:38;14.10;99.90
13960;DHT22;7052;51.050;3.716;2023-05-10T07:08:06;14.20;99.90
13960;DHT22;7052;51.050;3.716;2023-05-10T07:10:33;14.30;99.90
13960;DHT22;7052;51.050;3.716;2023-05-10T07:13:03;14.40;99.90
13960;DHT22;7052;51.050;3.716;2023-05-10T07:15:30;14.40;99.90
13960;DHT22;7052;51.050;3.716;2023-05-10T07:17:57;14.40;99.90
13960;DHT22;7052;51.050;3.716;2023-05-10T07:20:25;14.40;99.90
13960;DHT22;7052;51.050;3.716;2023-05-10T07:23:06;14.40;99.90
13960;DHT22;7052;51.050;3.716;2023-05-10T07:25:36;14.30;99.90
13960;DHT22;7052;51.050;3.716;2023-05-10T07:28:03;14.20;99.90
13960;DHT22;7052;51.050;3.716;2023-05-10T07:30:31;14.10;99.90
13960;DHT22;7052;51.050;3.716;2023-05-10T07:32:58;14.00;99.90
13960;DHT22;7052;51.050;3.716;2023-05-10T07:35:26;14.00;99.90
13960;DHT22;7052;51.050;3.716;2023-05-10T07:37:55;14.00;99.90
13960;DHT22;7052;51.050;3.716;2023-05-10T07:40:23;14.00;99.90
13960;DHT22;7052;51.050;3.716;2023-05-10T07:42:50;14.10;99.90
13960;DHT22;7052;51.050;3.716;2023-05-10T07:45:17;14.10;99.90
13960;DHT22;7052;51.050;3.716;2023-05-10T07:47:45;14.20;99.90
13960;DHT22;7052;51.050;3.716;2023-05-10T07:50:13;14.20;99.90
13960;DHT22;7052;51.050;3.716;2023-05-10T07:52:40;14.20;99.90
13960;DHT22;7052;51.050;3.716;2023-05-10T07:55:09;14.20;99.90
13960;DHT22;7052;51.050;3.716;2023-05-10T07:57:37;14.30;99.90
13960;DHT22;7052;51.050;3.716;2023-05-10T08:00:07;14.30;99.90
13960;DHT22;7052;51.050;3.716;2023-05-10T08:02:42;14.30;99.90
13960;DHT22;7052;51.050;3.716;2023-05-10T08:05:10;14.40;99.90
13960;DHT22;7052;51.050;3.716;2023-05-10T08:07:37;14.40;99.90
13960;DHT22;7052;51.050;3.716;2023-05-10T08:10:06;14.50;99.90
13960;DHT22;7052;51.050;3.716;2023-05-10T08:12:37;14.50;99.90
13960;DHT22;7052;51.050;3.716;2023-05-10T08:15:06;14.60;99.90
13960;DHT22;7052;51.050;3.716;2023-05-10T08:17:34;14.70;99.90
13960;DHT22;7052;51.050;3.716;2023-05-10T08:20:02;14.80;99.90
13960;DHT22;7052;51.050;3.716;2023-05-10T08:22:29;14.90;99.90
13960;DHT22;7052;51.050;3.716;2023-05-10T08:24:57;14.90;99.90
13960;DHT22;7052;51.050;3.716;2023-05-10T08:27:28;15.00;99.90
13960;DHT22;7052;51.050;3.716;2023-05-10T08:29:56;15.00;99.90
13960;DHT22;7052;51.050;3.716;2023-05-10T08:32:27;15.00;99.90
13960;DHT22;7052;51.050;3.716;2023-05-10T08:34:56;14.80;99.90
13960;DHT22;7052;51.050;3.716;2023-05-10T08:37:24;14.70;99.90
13960;DHT22;7052;51.050;3.716;2023-05-10T08:39:52;14.60;99.90
13960;DHT22;7052;51.050;3.716;2023-05-10T08:42:22;14.60;99.90
13960;DHT22;7052;51.050;3.716;2023-05-10T08:44:59;14.60;99.90
13960;DHT22;7052;51.050;3.716;2023-05-10T08:47:27;14.60;99.90
13960;DHT22;7052;51.050;3.716;2023-05-10T08:49:58;14.70;99.90
13960;DHT22;7052;51.050;3.716;2023-05-10T08:52:26;14.70;99.90
13960;DHT22;7052;51.050;3.716;2023-05-10T08:54:54;14.70;99.90
13960;DHT22;7052;51.050;3.716;2023-05-10T08:57:22;14.60;99.90
13960;DHT22;7052;51.050;3.716;2023-05-10T08:59:53;14.60;99.90
13960;DHT22;7052;51.050;3.716;2023-05-10T09:02:30;14.50;99.90
13960;DHT22;7052;51.050;3.716;2023-05-10T09:04:58;14.40;99.90
13960;DHT22;7052;51.050;3.716;2023-05-10T09:07:26;14.30;99.90
13960;DHT22;7052;51.050;3.716;2023-05-10T09:09:55;14.20;99.90
13960;DHT22;7052;51.050;3.716;2023-05-10T09:12:27;14.20;99.90
13960;DHT22;7052;51.050;3.716;2023-05-10T09:14:54;14.20;99.90
13960;DHT22;7052;51.050;3.716;2023-05-10T09:17:24;14.20;99.90
13960;DHT22;7052;51.050;3.716;2023-05-10T09:20:03;14.30;99.90
13960;DHT22;7052;51.050;3.716;2023-05-10T09:22:31;14.40;99.90
13960;DHT22;7052;51.050;3.716;2023-05-10T09:25:08;14.50;99.90
13960;DHT22;7052;51.050;3.716;2023-05-10T09:27:36;14.60;99.90
13960;DHT22;7052;51.050;3.716;2023-05-10T09:30:05;14.70;99.90
13960;DHT22;7052;51.050;3.716;2023-05-10T09:32:39;14.90;99.90
13960;DHT22;7052;51.050;3.716;2023-05-10T09:35:09;15.00;99.90
13960;DHT22;7052;51.050;3.716;2023-05-10T09:37:39;15.20;99.90
13960;DHT22;7052;51.050;3.716;2023-05-10T09:40:13;15.30;99.90
13960;DHT22;7052;51.050;3.716;2023-05-10T09:42:52;15.50;99.90
13960;DHT22;7052;51.050;3.716;2023-05-10T09:45:21;15.70;99.90
13960;DHT22;7052;51.050;3.716;2023-05-10T09:47:53;16.00;99.90
13960;DHT22;7052;51.050;3.716;2023-05-10T09:50:22;16.10;99.90
13960;DHT22;7052;51.050;3.716;2023-05-10T09:52:51;16.30;99.90
13960;DHT22;7052;51.050;3.716;2023-05-10T09:55:24;16.40;99.90
13960;DHT22;7052;51.050;3.716;2023-05-10T09:57:59;16.40;99.90
13960;DHT22;7052;51.050;3.716;2023-05-10T10:00:34;16.50;99.90
13960;DHT22;7052;51.050;3.716;2023-05-10T10:03:03;16.60;99.90
13960;DHT22;7052;51.050;3.716;2023-05-10T10:05:35;16.70;99.90
13960;DHT22;7052;51.050;3.716;2023-05-10T10:08:04;16.70;99.90
13960;DHT22;7052;51.050;3.716;2023-05-10T10:10:32;16.80;99.90
13960;DHT22;7052;51.050;3.716;2023-05-10T10:13:02;16.80;99.90
13960;DHT22;7052;51.050;3.716;2023-05-10T10:15:35;16.90;99.90
13960;DHT22;7052;51.050;3.716;2023-05-10T10:18:02;16.90;99.90
13960;DHT22;7052;51.050;3.716;2023-05-10T10:20:35;17.10;99.90
13960;DHT22;7052;51.050;3.716;2023-05-10T10:23:05;17.30;99.90
13960;DHT22;7052;51.050;3.716;2023-05-10T10:25:32;17.60;99.90
13960;DHT22;7052;51.050;3.716;2023-05-10T10:28:15;17.90;99.90
13960;DHT22;7052;51.050;3.716;2023-05-10T10:30:48;18.10;99.90
13960;DHT22;7052;51.050;3.716;2023-05-10T10:33:36;18.30;99.90
13960;DHT22;7052;51.050;3.716;2023-05-10T10:36:14;18.50;99.90
13960;DHT22;7052;51.050;3.716;2023-05-10T10:38:58;18.50;99.90
13960;DHT22;7052;51.050;3.716;2023-05-10T10:41:34;18.50;99.90
13960;DHT22;7052;51.050;3.716;2023-05-10T10:44:33;18.30;99.90
13960;DHT22;7052;51.050;3.716;2023-05-10T10:47:05;18.20;99.90
13960;DHT22;7052;51.050;3.716;2023-05-10T10:49:38;18.20;99.90
13960;DHT22;7052;51.050;3.716;2023-05-10T10:52:22;18.10;99.90
13960;DHT22;7052;51.050;3.716;2023-05-10T10:54:58;17.90;99.90
13960;DHT22;7052;51.050;3.716;2023-05-10T10:57:26;17.80;99.90
13960;DHT22;7052;51.050;3.716;2023-05-10T11:00:24;17.60;99.90
13960;DHT22;7052;51.050;3.716;2023-05-10T11:03:04;17.50;99.90
13960;DHT22;7052;51.050;3.716;2023-05-10T11:05:40;17.30;99.90
13960;DHT22;7052;51.050;3.716;2023-05-10T11:08:17;17.30;99.90
13960;DHT22;7052;51.050;3.716;2023-05-10T11:11:08;17.30;99.90
13960;DHT22;7052;51.050;3.716;2023-05-10T11:13:42;17.30;99.90
13960;DHT22;7052;51.050;3.716;2023-05-10T11:16:18;17.30;99.90
13960;DHT22;7052;51.050;3.716;2023-05-10T11:18:58;17.20;99.90
13960;DHT22;7052;51.050;3.716;2023-05-10T11:21:27;17.00;99.90
13960;DHT22;7052;51.050;3.716;2023-05-10T11:23:57;16.80;99.90
13960;DHT22;7052;51.050;3.716;2023-05-10T11:26:30;16.60;99.90
13960;DHT22;7052;51.050;3.716;2023-05-10T11:28:57;16.50;99.90
13960;DHT22;7052;51.050;3.716;2023-05-10T11:31:26;16.30;99.90
13960;DHT22;7052;51.050;3.716;2023-05-10T11:33:54;16.10;99.90
13960;DHT22;7052;51.050;3.716;2023-05-10T11:36:27;16.00;99.90
13960;DHT22;7052;51.050;3.716;2023-05-10T11:38:58;16.00;99.90
13960;DHT22;7052;51.050;3.716;2023-05-10T11:41:29;15.90;99.90
13960;DHT22;7052;51.050;3.716;2023-05-10T11:43:57;15.90;99.90
13960;DHT22;7052;51.050;3.716;2023-05-10T11:46:26;15.90;99.90
13960;DHT22;7052;51.050;3.716;2023-05-10T11:48:58;16.00;99.90
13960;DHT22;7052;51.050;3.716;2023-05-10T11:51:32;16.20;99.90
13960;DHT22;7052;51.050;3.716;2023-05-10T11:54:07;16.30;99.90
13960;DHT22;7052;51.050;3.716;2023-05-10T11:56:39;16.60;99.90
13960;DHT22;7052;51.050;3.716;2023-05-10T11:59:09;16.80;99.90
13960;DHT22;7052;51.050;3.716;2023-05-10T12:01:37;17.10;99.90
13960;DHT22;7052;51.050;3.716;2023-05-10T12:04:04;17.40;99.90
13960;DHT22;7052;51.050;3.716;2023-05-10T12:06:40;17.60;99.90
13960;DHT22;7052;51.050;3.716;2023-05-10T12:09:12;17.80;99.90
13960;DHT22;7052;51.050;3.716;2023-05-10T12:11:40;17.90;99.90
13960;DHT22;7052;51.050;3.716;2023-05-10T12:14:08;17.90;99.90
13960;DHT22;7052;51.050;3.716;2023-05-10T12:16:36;17.90;99.90
13960;DHT22;7052;51.050;3.716;2023-05-10T12:19:04;18.00;99.90
13960;DHT22;7052;51.050;3.716;2023-05-10T12:21:32;18.00;99.90
13960;DHT22;7052;51.050;3.716;2023-05-10T12:24:02;17.90;99.90
13960;DHT22;7052;51.050;3.716;2023-05-10T12:26:36;17.90;99.90
13960;DHT22;7052;51.050;3.716;2023-05-10T12:29:14;17.80;99.90
13960;DHT22;7052;51.050;3.716;2023-05-10T12:31:52;17.70;99.90
13960;DHT22;7052;51.050;3.716;2023-05-10T12:34:26;17.70;99.90
13960;DHT22;7052;51.050;3.716;2023-05-10T12:37:03;17.60;99.90
13960;DHT22;7052;51.050;3.716;2023-05-10T12:39:42;17.30;99.90
13960;DHT22;7052;51.050;3.716;2023-05-10T12:42:23;17.10;99.90
13960;DHT22;7052;51.050;3.716;2023-05-10T12:44:55;16.90;99.90
13960;DHT22;7052;51.050;3.716;2023-05-10T12:47:22;16.70;99.90
13960;DHT22;7052;51.050;3.716;2023-05-10T12:49:49;16.50;99.90
13960;DHT22;7052;51.050;3.716;2023-05-10T12:52:16;16.40;99.90
13960;DHT22;7052;51.050;3.716;2023-05-10T12:54:43;16.20;99.90
13960;DHT22;7052;51.050;3.716;2023-05-10T12:57:13;16.10;99.90
13960;DHT22;7052;51.050;3.716;2023-05-10T12:59:40;16.00;99.90
13960;DHT22;7052;51.050;3.716;2023-05-10T13:02:20;15.90;99.90
13960;DHT22;7052;51.050;3.716;2023-05-10T13:04:49;15.80;99.90
13960;DHT22;7052;51.050;3.716;2023-05-10T13:07:16;15.70;99.90
13960;DHT22;7052;51.050;3.716;2023-05-10T13:09:44;15.60;99.90
13960;DHT22;7052;51.050;3.716;2023-05-10T13:12:13;15.60;99.90
13960;DHT22;7052;51.050;3.716;2023-05-10T13:14:41;15.50;99.90
13960;DHT22;7052;51.050;3.716;2023-05-10T13:17:10;15.50;99.90
13960;DHT22;7052;51.050;3.716;2023-05-10T13:19:37;15.40;99.90
13960;DHT22;7052;51.050;3.716;2023-05-10T13:22:09;15.40;99.90
13960;DHT22;7052;51.050;3.716;2023-05-10T13:24:36;15.40;99.90
13960;DHT22;7052;51.050;3.716;2023-05-10T13:27:06;15.30;99.90
13960;DHT22;7052;51.050;3.716;2023-05-10T13:29:35;15.30;99.90
13960;DHT22;7052;51.050;3.716;2023-05-10T13:32:04;15.20;99.90
13960;DHT22;7052;51.050;3.716;2023-05-10T13:34:34;15.20;99.90
13960;DHT22;7052;51.050;3.716;2023-05-10T13:37:02;15.10;99.90
13960;DHT22;7052;51.050;3.716;2023-05-10T13:39:31;15.00;99.90
13960;DHT22;7052;51.050;3.716;2023-05-10T13:42:00;15.00;99.90
13960;DHT22;7052;51.050;3.716;2023-05-10T13:44:28;15.00;99.90
13960;DHT22;7052;51.050;3.716;2023-05-10T13:46:57;15.00;99.90
13960;DHT22;7052;51.050;3.716;2023-05-10T13:49:26;14.90;99.90
13960;DHT22;7052;51.050;3.716;2023-05-10T13:51:53;15.00;99.90
13960;DHT22;7052;51.050;3.716;2023-05-10T13:54:22;15.00;99.90
13960;DHT22;7052;51.050;3.716;2023-05-10T13:56:50;14.90;99.90
13960;DHT22;7052;51.050;3.716;2023-05-10T13:59:17;14.90;99.90
13960;DHT22;7052;51.050;3.716;2023-05-10T14:01:45;14.90;99.90
13960;DHT22;7052;51.050;3.716;2023-05-10T14:04:13;14.90;99.90
13960;DHT22;7052;51.050;3.716;2023-05-10T14:06:40;14.90;99.90
13960;DHT22;7052;51.050;3.716;2023-05-10T14:09:09;14.90;99.90
13960;DHT22;7052;51.050;3.716;2023-05-10T14:11:38;14.90;99.90
13960;DHT22;7052;51.050;3.716;2023-05-10T14:14:08;14.90;99.90
13960;DHT22;7052;51.050;3.716;2023-05-10T14:16:41;14.90;99.90
13960;DHT22;7052;51.050;3.716;2023-05-10T14:19:13;14.90;99.90
13960;DHT22;7052;51.050;3.716;2023-05-10T14:21:40;14.90;99.90
13960;DHT22;7052;51.050;3.716;2023-05-10T14:24:08;14.90;99.90
13960;DHT22;7052;51.050;3.716;2023-05-10T14:26:36;15.00;99.90
13960;DHT22;7052;51.050;3.716;2023-05-10T14:29:04;15.00;99.90
13960;DHT22;7052;51.050;3.716;2023-05-10T14:31:31;15.10;99.90
13960;DHT22;7052;51.050;3.716;2023-05-10T14:33:59;15.10;99.90
13960;DHT22;7052;51.050;3.716;2023-05-10T14:36:30;15.20;99.90
13960;DHT22;7052;51.050;3.716;2023-05-10T14:38:57;15.20;99.90
13960;DHT22;7052;51.050;3.716;2023-05-10T14:41:28;15.30;99.90
13960;DHT22;7052;51.050;3.716;2023-05-10T14:43:58;15.40;99.90
13960;DHT22;7052;51.050;3.716;2023-05-10T14:46:26;15.40;99.90
13960;DHT22;7052;51.050;3.716;2023-05-10T14:48:53;15.50;99.90
13960;DHT22;7052;51.050;3.716;2023-05-10T14:51:29;15.50;99.90
13960;DHT22;7052;51.050;3.716;2023-05-10T14:53:57;15.60;99.90
13960;DHT22;7052;51.050;3.716;2023-05-10T14:56:24;15.60;99.90
13960;DHT22;7052;51.050;3.716;2023-05-10T14:58:53;15.60;99.90
13960;DHT22;7052;51.050;3.716;2023-05-10T15:01:23;15.70;99.90
13960;DHT22;7052;51.050;3.716;2023-05-10T15:03:50;15.70;99.90
13960;DHT22;7052;51.050;3.716;2023-05-10T15:06:17;15.80;99.90
13960;DHT22;7052;51.050;3.716;2023-05-10T15:08:56;15.80;99.90
13960;DHT22;7052;51.050;3.716;2023-05-10T15:11:24;15.90;99.90
13960;DHT22;7052;51.050;3.716;2023-05-10T15:13:51;15.90;99.90
13960;DHT22;7052;51.050;3.716;2023-05-10T15:16:18;15.90;99.90
13960;DHT22;7052;51.050;3.716;2023-05-10T15:18:45;15.90;99.90
13960;DHT22;7052;51.050;3.716;2023-05-10T15:21:12;16.00;99.90
13960;DHT22;7052;51.050;3.716;2023-05-10T15:23:46;16.00;99.90
13960;DHT22;7052;51.050;3.716;2023-05-10T15:26:15;16.10;99.90
13960;DHT22;7052;51.050;3.716;2023-05-10T15:28:42;16.10;99.90
13960;DHT22;7052;51.050;3.716;2023-05-10T15:31:10;16.10;99.90
13960;DHT22;7052;51.050;3.716;2023-05-10T15:33:41;16.20;99.90
13960;DHT22;7052;51.050;3.716;2023-05-10T15:36:10;16.20;99.90
13960;DHT22;7052;51.050;3.716;2023-05-10T15:38:37;16.30;99.90
13960;DHT22;7052;51.050;3.716;2023-05-10T15:41:05;16.30;99.90
13960;DHT22;7052;51.050;3.716;2023-05-10T15:43:36;16.40;99.90
13960;DHT22;7052;51.050;3.716;2023-05-10T15:46:03;16.40;99.90
13960;DHT22;7052;51.050;3.716;2023-05-10T15:48:31;16.50;99.90
13960;DHT22;7052;51.050;3.716;2023-05-10T15:51:01;16.50;99.90
13960;DHT22;7052;51.050;3.716;2023-05-10T15:53:28;16.60;99.90
13960;DHT22;7052;51.050;3.716;2023-05-10T15:55:57;16.60;99.90
13960;DHT22;7052;51.050;3.716;2023-05-10T15:58:24;16.70;99.90
13960;DHT22;7052;51.050;3.716;2023-05-10T16:00:54;16.70;99.90
13960;DHT22;7052;51.050;3.716;2023-05-10T16:03:23;16.80;99.90
13960;DHT22;7052;51.050;3.716;2023-05-10T16:05:51;16.90;99.90